createdAt,value
2022-11-10T00:03:16.253Z,99508.59
2022-11-10T00:06:22.473Z,99512.21
2022-11-10T00:09:29.190Z,99516.66
2022-11-10T00:12:36.047Z,99513.54
2022-11-10T00:16:05.486Z,99507.23
2022-11-10T00:19:11.777Z,99503.64
2022-11-10T00:22:18.257Z,99503.62
2022-11-10T00:25:26.885Z,99503.24
2022-11-10T00:28:33.052Z,99502.88
2022-11-10T00:31:40.068Z,99506.88
2022-11-10T00:34:46.636Z,99498.86
2022-11-10T00:37:52.836Z,99500.06
2022-11-10T00:41:02.303Z,99492.92
2022-11-10T00:44:08.695Z,99500.98
2022-11-10T00:47:14.915Z,99507.91
2022-11-10T00:50:21.224Z,99504.98
2022-11-10T00:53:27.423Z,99506.23
2022-11-10T00:56:33.981Z,99511.85
2022-11-10T00:59:40.198Z,99505.05
2022-11-10T01:02:48.943Z,99511.55
2022-11-10T01:05:55.459Z,99512.09
2022-11-10T01:09:01.662Z,99511.22
2022-11-10T01:12:08.126Z,99510.02
2022-11-10T01:15:14.575Z,99513.23
2022-11-10T01:18:21.125Z,99517.76
2022-11-10T01:21:29.312Z,99517.34
2022-11-10T01:24:35.963Z,99512.86
2022-11-10T01:27:42.205Z,99514.63
2022-11-10T01:30:49.182Z,99512.84
2022-11-10T01:33:55.648Z,99517.98
2022-11-10T01:37:02.872Z,99523.59
2022-11-10T01:40:10.470Z,99516.86
2022-11-10T01:43:17.191Z,99520.60
2022-11-10T01:46:23.928Z,99519.30
2022-11-10T01:49:32.525Z,99519.98
2022-11-10T01:52:40.695Z,99524.85
2022-11-10T01:55:48.951Z,99531.26
2022-11-10T01:59:01.556Z,99530.50
2022-11-10T02:02:31.728Z,99531.77
2022-11-10T02:05:38.165Z,99533.05
2022-11-10T02:08:45.770Z,99536.08
2022-11-10T02:11:55.486Z,99530.69
2022-11-10T02:15:02.101Z,99542.89
2022-11-10T02:18:08.798Z,99541.73
2022-11-10T02:21:20.845Z,99538.38
2022-11-10T02:24:27.372Z,99541.02
2022-11-10T02:27:33.848Z,99537.27
2022-11-10T02:30:40.543Z,99540.90
2022-11-10T02:33:47.566Z,99543.05
2022-11-10T02:36:54.086Z,99544.48
2022-11-10T02:40:00.789Z,99544.05
2022-11-10T02:43:12.799Z,99545.20
2022-11-10T02:46:19.483Z,99543.39
2022-11-10T02:49:26.099Z,99541.84
2022-11-10T02:52:34.917Z,99545.23
2022-11-10T02:55:42.057Z,99548.52
2022-11-10T02:58:48.985Z,99551.52
2022-11-10T03:01:55.929Z,99558.09
2022-11-10T03:05:02.467Z,99557.58
2022-11-10T03:08:09.147Z,99560.03
2022-11-10T03:11:15.720Z,99560.80
2022-11-10T03:14:22.042Z,99558.48
2022-11-10T03:17:28.727Z,99560.01
2022-11-10T03:20:35.139Z,99560.50
2022-11-10T03:23:41.881Z,99562.83
2022-11-10T03:26:49.008Z,99569.23
2022-11-10T03:29:55.596Z,99572.88
2022-11-10T03:33:02.173Z,99576.35
2022-11-10T03:36:08.976Z,99577.95
2022-11-10T03:39:15.551Z,99577.68
2022-11-10T03:42:22.057Z,99583.13
2022-11-10T03:45:28.971Z,99581.42
2022-11-10T03:48:35.824Z,99589.82
2022-11-10T03:51:42.863Z,99593.07
2022-11-10T03:54:49.463Z,99588.05
2022-11-10T03:57:55.897Z,99595.55
2022-11-10T04:01:02.334Z,99597.63
2022-11-10T04:04:30.998Z,99598.89
2022-11-10T04:07:55.872Z,99599.35
2022-11-10T04:11:03.478Z,99601.17
2022-11-10T04:14:28.230Z,99606.23
2022-11-10T04:17:34.623Z,99609.37
2022-11-10T04:20:41.037Z,99612.65
2022-11-10T04:23:47.331Z,99614.26
2022-11-10T04:26:53.445Z,99613.80
2022-11-10T04:29:59.580Z,99617.00
2022-11-10T04:33:07.149Z,99620.92
2022-11-10T04:36:17.151Z,99625.33
2022-11-10T04:39:23.932Z,99625.63
2022-11-10T04:42:30.319Z,99629.34
2022-11-10T04:45:37.069Z,99628.42
2022-11-10T04:48:43.542Z,99629.58
2022-11-10T04:51:49.854Z,99632.48
2022-11-10T04:54:56.837Z,99629.45
2022-11-10T04:58:03.327Z,99630.86
2022-11-10T05:01:16.920Z,99633.54
2022-11-10T05:04:23.384Z,99629.41
2022-11-10T05:07:29.921Z,99630.55
2022-11-10T05:10:38.471Z,99633.67
2022-11-10T05:13:45.801Z,99635.79
2022-11-10T05:16:52.709Z,99642.73
2022-11-10T05:19:59.401Z,99646.36
2022-11-10T05:23:24.622Z,99647.98
2022-11-10T05:26:31.429Z,99654.02
2022-11-10T05:29:37.841Z,99656.89
2022-11-10T05:32:44.576Z,99664.86
2022-11-10T05:35:51.389Z,99669.94
2022-11-10T05:38:57.908Z,99672.42
2022-11-10T05:42:06.063Z,99672.59
2022-11-10T05:45:12.644Z,99675.40
2022-11-10T05:48:19.473Z,99679.79
2022-11-10T05:51:26.159Z,99685.42
2022-11-10T05:54:32.695Z,99691.95
2022-11-10T05:57:42.053Z,99695.84
2022-11-10T06:00:48.947Z,99697.96
2022-11-10T06:03:55.726Z,99697.80
2022-11-10T06:07:02.815Z,99710.95
2022-11-10T06:10:10.165Z,99715.30
2022-11-10T06:13:17.149Z,99714.45
2022-11-10T06:16:23.938Z,99721.27
2022-11-10T06:19:30.773Z,99732.65
2022-11-10T06:22:37.820Z,99739.69
2022-11-10T06:25:46.336Z,99749.72
2022-11-10T06:28:53.328Z,99753.09
2022-11-10T06:31:59.819Z,99761.52
2022-11-10T06:35:06.613Z,99772.02
2022-11-10T06:38:13.465Z,99779.53
2022-11-10T06:41:24.192Z,99781.69
2022-11-10T06:44:32.127Z,99781.37
2022-11-10T06:47:38.638Z,99789.01
2022-11-10T06:50:45.604Z,99791.33
2022-11-10T06:53:52.037Z,99799.52
2022-11-10T06:56:58.726Z,99806.86
2022-11-10T07:00:05.978Z,99809.92
2022-11-10T07:03:16.237Z,99820.65
2022-11-10T07:06:23.056Z,99827.00
2022-11-10T07:09:29.892Z,99824.16
2022-11-10T07:12:36.223Z,99825.77
2022-11-10T07:15:43.495Z,99827.95
2022-11-10T07:18:50.264Z,99835.30
2022-11-10T07:21:56.997Z,99834.23
2022-11-10T07:25:03.772Z,99836.47
2022-11-10T07:28:13.079Z,99840.88
2022-11-10T07:31:19.732Z,99848.84
2022-11-10T07:34:26.318Z,99850.38
2022-11-10T07:37:33.779Z,99842.33
2022-11-10T07:40:40.686Z,99846.50
2022-11-10T07:43:47.234Z,99849.75
2022-11-10T07:46:53.961Z,99852.51
2022-11-10T07:50:00.713Z,99853.13
2022-11-10T07:53:15.006Z,99859.48
2022-11-10T07:56:22.084Z,99856.06
2022-11-10T07:59:28.947Z,99860.48
2022-11-10T08:02:35.300Z,99862.22
2022-11-10T08:05:42.059Z,99861.30
2022-11-10T08:08:48.794Z,99864.43
2022-11-10T08:11:55.471Z,99867.73
2022-11-10T08:15:01.859Z,99871.36
2022-11-10T08:18:21.353Z,99880.95
2022-11-10T08:21:27.583Z,99882.96
2022-11-10T08:24:34.137Z,99889.90
2022-11-10T08:27:40.947Z,99892.79
2022-11-10T08:30:49.459Z,99902.52
2022-11-10T08:33:56.099Z,99907.35
2022-11-10T08:37:02.876Z,99910.39
2022-11-10T08:40:10.509Z,99909.17
2022-11-10T08:43:18.739Z,99921.63
2022-11-10T08:46:25.453Z,99923.75
2022-11-10T08:49:32.392Z,99928.73
2022-11-10T08:52:39.287Z,99932.56
2022-11-10T08:55:47.105Z,99932.23
2022-11-10T08:58:54.321Z,99938.14
2022-11-10T09:02:01.138Z,99941.84
2022-11-10T09:05:09.251Z,99943.29
2022-11-10T09:08:17.149Z,99955.05
2022-11-10T09:11:26.232Z,99959.80
2022-11-10T09:14:33.501Z,99961.02
2022-11-10T09:17:41.668Z,99968.12
2022-11-10T09:20:48.242Z,99975.58
2022-11-10T09:23:54.791Z,99969.55
2022-11-10T09:27:01.633Z,99973.02
2022-11-10T09:30:13.091Z,99977.27
2022-11-10T09:33:24.461Z,99981.91
2022-11-10T09:36:31.300Z,99987.59
2022-11-10T09:39:37.916Z,99987.94
2022-11-10T09:42:47.552Z,99995.81
2022-11-10T09:45:58.018Z,99995.29
2022-11-10T09:49:18.338Z,100001.73
2022-11-10T09:52:29.818Z,100003.56
2022-11-10T09:56:01.099Z,100010.14
2022-11-10T09:59:19.157Z,100019.75
2022-11-10T10:02:51.378Z,100022.30
2022-11-10T10:06:19.117Z,100031.87
2022-11-10T10:09:37.488Z,100026.09
2022-11-10T10:13:27.729Z,100029.59
2022-11-10T10:16:47.440Z,100028.09
2022-11-10T10:20:19.935Z,100025.30
2022-11-10T10:24:07.226Z,100036.71
2022-11-10T10:27:07.247Z,100033.65
2022-11-10T10:30:17.715Z,100033.52
2022-11-10T10:33:24.589Z,100038.08
2022-11-10T10:36:32.052Z,100038.69
2022-11-10T10:39:46.861Z,100043.17
2022-11-10T10:42:53.269Z,100055.14
2022-11-10T10:46:16.032Z,100055.72
2022-11-10T10:49:29.067Z,100054.46
2022-11-10T10:52:36.510Z,100060.55
2022-11-10T10:56:00.089Z,100065.05
2022-11-10T10:59:17.180Z,100065.11
2022-11-10T11:02:32.948Z,100070.66
2022-11-10T11:05:39.765Z,100063.77
2022-11-10T11:09:17.354Z,100075.87
2022-11-10T11:12:33.270Z,100076.89
2022-11-10T11:15:39.683Z,100090.59
2022-11-10T11:18:46.495Z,100088.62
2022-11-10T11:22:11.403Z,100092.08
2022-11-10T11:25:43.726Z,100097.48
2022-11-10T11:29:24.328Z,100106.58
2022-11-10T11:33:05.062Z,100102.90
2022-11-10T11:37:05.343Z,100096.84
2022-11-10T11:40:38.081Z,100108.79
2022-11-10T11:44:24.673Z,100113.91
2022-11-10T11:47:47.407Z,100115.60
2022-11-10T11:51:10.031Z,100118.29
2022-11-10T11:54:32.576Z,100129.15
2022-11-10T11:58:06.084Z,100134.36
2022-11-10T12:01:37.561Z,100129.77
2022-11-10T12:05:10.153Z,100139.03
2022-11-10T12:08:37.166Z,100145.58
2022-11-10T12:12:21.569Z,100144.46
2022-11-10T12:16:02.638Z,100150.45
2022-11-10T12:19:38.534Z,100160.24
2022-11-10T12:23:23.435Z,100160.47
2022-11-10T12:26:47.981Z,100157.86
2022-11-10T12:30:19.441Z,100167.74
2022-11-10T12:33:42.475Z,100166.84
2022-11-10T12:36:50.682Z,100164.10
2022-11-10T12:40:15.730Z,100170.48
2022-11-10T12:44:17.660Z,100180.79
2022-11-10T12:47:30.109Z,100177.77
2022-11-10T12:51:27.439Z,100182.23
2022-11-10T12:54:35.874Z,100199.30
2022-11-10T12:57:45.082Z,100205.02
2022-11-10T13:01:03.786Z,100210.73
2022-11-10T13:04:19.242Z,100210.61
2022-11-10T13:07:25.753Z,100215.73
2022-11-10T13:10:32.667Z,100219.67
2022-11-10T13:13:59.534Z,100228.36
2022-11-10T13:17:06.788Z,100232.20
2022-11-10T13:20:52.563Z,100232.88
2022-11-10T13:24:02.756Z,100238.63
2022-11-10T13:27:34.003Z,100239.70
2022-11-10T13:30:48.809Z,100233.83
2022-11-10T13:34:08.079Z,100246.86
2022-11-10T13:37:30.270Z,100260.17
2022-11-10T13:40:39.594Z,100265.52
2022-11-10T13:43:53.921Z,100273.06
2022-11-10T13:47:09.300Z,100275.41
2022-11-10T13:50:49.653Z,100283.27
2022-11-10T13:54:19.737Z,100285.17
2022-11-10T13:57:42.313Z,100299.97
2022-11-10T14:01:15.711Z,100306.20
2022-11-10T14:04:46.610Z,100311.45
2022-11-10T14:08:04.283Z,100315.91
2022-11-10T14:11:24.694Z,100312.70
2022-11-10T14:15:16.226Z,100316.89
2022-11-10T14:18:49.526Z,100319.71
2022-11-10T14:22:03.153Z,100329.75
2022-11-10T14:25:42.798Z,100333.05
2022-11-10T14:28:49.504Z,100342.83
2022-11-10T14:32:03.411Z,100347.02
2022-11-10T14:35:22.527Z,100350.80
2022-11-10T14:38:37.394Z,100353.83
2022-11-10T14:41:48.774Z,100366.89
2022-11-10T14:45:21.835Z,100373.65
2022-11-10T14:48:34.265Z,100388.90
2022-11-10T14:51:40.969Z,100394.80
2022-11-10T14:54:47.780Z,100403.94
2022-11-10T14:58:15.062Z,100407.77
2022-11-10T15:01:35.255Z,100403.52
2022-11-10T15:04:46.046Z,100408.30
2022-11-10T15:07:56.250Z,100419.83
2022-11-10T15:11:03.443Z,100426.03
2022-11-10T15:14:38.341Z,100434.05
2022-11-10T15:17:50.226Z,100444.56
2022-11-10T15:21:06.807Z,100457.23
2022-11-10T15:24:13.764Z,100469.59
2022-11-10T15:27:32.384Z,100474.09
2022-11-10T15:30:39.117Z,100476.44
2022-11-10T15:33:49.978Z,100483.73
2022-11-10T15:37:11.470Z,100490.32
2022-11-10T15:40:45.949Z,100497.23
2022-11-10T15:44:30.456Z,100502.85
2022-11-10T15:47:37.360Z,100502.31
2022-11-10T15:50:50.757Z,100498.01
2022-11-10T15:53:57.372Z,100498.78
2022-11-10T15:57:08.993Z,100499.45
2022-11-10T16:00:15.744Z,100498.52
2022-11-10T16:03:23.955Z,100505.84
2022-11-10T16:06:30.785Z,100507.67
2022-11-10T16:09:37.768Z,100508.23
2022-11-10T16:12:44.910Z,100509.57
2022-11-10T16:15:56.138Z,100502.60
2022-11-10T16:19:04.716Z,100505.46
2022-11-10T16:22:12.352Z,100499.56
2022-11-10T16:25:25.187Z,100504.29
2022-11-10T16:28:34.340Z,100504.27
2022-11-10T16:31:41.712Z,100505.67
2022-11-10T16:34:48.404Z,100516.16
2022-11-10T16:37:55.155Z,100520.71
2022-11-10T16:41:12.196Z,100527.36
2022-11-10T16:44:25.085Z,100523.40
2022-11-10T16:47:32.867Z,100526.68
2022-11-10T16:50:44.785Z,100530.79
2022-11-10T16:53:53.301Z,100538.66
2022-11-10T16:56:59.961Z,100546.66
2022-11-10T17:00:11.317Z,100547.20
2022-11-10T17:04:00.235Z,100550.63
2022-11-10T17:07:15.813Z,100557.86
2022-11-10T17:10:23.020Z,100557.77
2022-11-10T17:13:30.405Z,100562.34
2022-11-10T17:16:39.845Z,100559.95
2022-11-10T17:19:49.381Z,100569.36
2022-11-10T17:22:56.723Z,100569.13
2022-11-10T17:26:03.365Z,100561.98
2022-11-10T17:29:26.764Z,100569.52
2022-11-10T17:33:02.977Z,100572.20
2022-11-10T17:36:02.602Z,100576.48
2022-11-10T17:39:28.170Z,100579.42
2022-11-10T17:42:40.231Z,100581.25
2022-11-10T17:45:47.756Z,100589.63
2022-11-10T17:49:00.232Z,100601.27
2022-11-10T17:52:17.303Z,100604.59
2022-11-10T17:55:33.933Z,100615.61
2022-11-10T17:58:41.800Z,100614.71
2022-11-10T18:02:01.942Z,100613.25
2022-11-10T18:05:26.044Z,100605.70
2022-11-10T18:08:35.469Z,100603.15
2022-11-10T18:11:42.371Z,100605.36
2022-11-10T18:14:49.272Z,100607.60
2022-11-10T18:18:00.872Z,100604.30
2022-11-10T18:21:08.756Z,100602.28
2022-11-10T18:24:16.128Z,100607.60
2022-11-10T18:27:22.743Z,100605.77
2022-11-10T18:30:34.699Z,100604.77
2022-11-10T18:33:41.560Z,100599.95
2022-11-10T18:36:48.120Z,100592.95
2022-11-10T18:39:54.732Z,100590.60
2022-11-10T18:43:06.909Z,100584.95
2022-11-10T18:46:14.480Z,100579.43
2022-11-10T18:49:21.581Z,100579.42
2022-11-10T18:52:28.029Z,100584.57
2022-11-10T18:55:34.491Z,100586.04
2022-11-10T18:58:42.188Z,100585.27
2022-11-10T19:01:50.579Z,100592.08
2022-11-10T19:04:57.290Z,100590.07
2022-11-10T19:08:04.239Z,100588.51
2022-11-10T19:11:15.051Z,100593.91
2022-11-10T19:14:22.013Z,100592.73
2022-11-10T19:17:28.776Z,100595.95
2022-11-10T19:20:39.980Z,100597.89
2022-11-10T19:23:47.343Z,100599.95
2022-11-10T19:26:53.970Z,100597.75
2022-11-10T19:30:00.563Z,100602.02
2022-11-10T19:33:07.690Z,100597.02
2022-11-10T19:36:20.932Z,100601.86
2022-11-10T19:39:27.434Z,100608.58
2022-11-10T19:42:34.232Z,100624.27
2022-11-10T19:45:42.395Z,100620.81
2022-11-10T19:48:51.831Z,100627.33
2022-11-10T19:51:58.170Z,100626.23
2022-11-10T19:55:05.620Z,100631.33
2022-11-10T19:58:11.931Z,100638.56
2022-11-10T20:01:21.320Z,100639.58
2022-11-10T20:04:28.069Z,100639.70
2022-11-10T20:07:54.926Z,100643.86
2022-11-10T20:11:09.406Z,100644.98
2022-11-10T20:14:16.233Z,100644.52
2022-11-10T20:17:22.846Z,100644.06
2022-11-10T20:20:29.421Z,100645.50
2022-11-10T20:23:36.328Z,100645.77
2022-11-10T20:26:42.956Z,100642.61
2022-11-10T20:29:49.728Z,100637.85
2022-11-10T20:33:05.040Z,100636.74
2022-11-10T20:36:26.138Z,100638.80
2022-11-10T20:39:32.464Z,100641.27
2022-11-10T20:42:42.627Z,100635.53
2022-11-10T20:45:53.060Z,100630.53
2022-11-10T20:49:00.119Z,100626.02
2022-11-10T20:52:06.664Z,100628.10
2022-11-10T20:55:18.246Z,100629.38
2022-11-10T20:58:28.007Z,100626.16
2022-11-10T21:01:40.639Z,100628.20
2022-11-10T21:04:58.822Z,100627.47
2022-11-10T21:08:10.465Z,100629.99
2022-11-10T21:11:39.369Z,100627.73
2022-11-10T21:14:46.080Z,100633.05
2022-11-10T21:17:52.599Z,100643.17
2022-11-10T21:20:59.217Z,100645.92
2022-11-10T21:24:09.485Z,100647.17
2022-11-10T21:27:16.572Z,100645.22
2022-11-10T21:30:23.384Z,100648.67
2022-11-10T21:34:05.752Z,100644.27
2022-11-10T21:37:12.049Z,100651.60
2022-11-10T21:40:19.631Z,100651.66
2022-11-10T21:43:26.568Z,100650.80
2022-11-10T21:46:33.599Z,100649.27
2022-11-10T21:49:40.002Z,100651.02
2022-11-10T21:52:48.889Z,100649.23
2022-11-10T21:56:06.036Z,100648.95
2022-11-10T21:59:12.417Z,100657.50
2022-11-10T22:02:18.593Z,100658.34
2022-11-10T22:05:28.490Z,100658.17
2022-11-10T22:08:36.582Z,100659.84
2022-11-10T22:12:01.599Z,100660.46
2022-11-10T22:15:33.430Z,100658.77
2022-11-10T22:18:41.327Z,100662.00
2022-11-10T22:21:48.932Z,100659.48
2022-11-10T22:24:55.620Z,100660.79
2022-11-10T22:28:01.925Z,100665.69
2022-11-10T22:31:09.752Z,100661.60
2022-11-10T22:34:16.770Z,100663.35
2022-11-10T22:37:22.916Z,100662.08
2022-11-10T22:40:47.617Z,100661.10
2022-11-10T22:44:09.254Z,100661.52
2022-11-10T22:47:15.690Z,100660.27
2022-11-10T22:50:22.412Z,100656.14
2022-11-10T22:53:28.850Z,100656.44
2022-11-10T22:56:35.562Z,100662.91
2022-11-10T22:59:41.955Z,100664.66
2022-11-10T23:02:48.392Z,100668.08
2022-11-10T23:05:56.451Z,100667.40
2022-11-10T23:09:04.380Z,100663.98
2022-11-10T23:12:10.653Z,100665.13
2022-11-10T23:15:17.110Z,100665.55
2022-11-10T23:18:23.469Z,100667.92
2022-11-10T23:21:30.870Z,100663.83
2022-11-10T23:24:36.995Z,100656.94
2022-11-10T23:27:43.002Z,100652.91
2022-11-10T23:30:49.736Z,100653.43
2022-11-10T23:33:57.819Z,100648.02
2022-11-10T23:37:04.323Z,100647.95
2022-11-10T23:40:12.167Z,100649.13
2022-11-10T23:43:19.495Z,100649.30
2022-11-10T23:46:25.823Z,100642.77
2022-11-10T23:49:32.302Z,100644.39
2022-11-10T23:52:38.962Z,100647.54
2022-11-10T23:55:46.140Z,100650.70
2022-11-10T23:58:52.611Z,100652.78
